Time;durP1;ratioP1;P1;durP2;ratioP2;P2;SDS_P1;SDS_P2;PMS_P1;PMS_P2;Temp;Humidity;BMP_temperature;BMP_pressure;BME280_temperature;BME280_humidity;BME280_pressure;Samples;Min_cycle;Max_cycle;Signal;HPM_P1;HPM_P2
2022/07/27 00:00:45;;;;;;;;;;;;;;;19.73;67.59;99996.25;1739851;81;20149;-64
2022/07/27 00:03:12;;;;;;;;;;;;;;;19.74;67.43;100001.10;1739153;81;20438;-66
2022/07/27 00:05:39;;;;;;;;;;;;;;;19.71;67.09;99998.52;1739876;81;20132;-67
2022/07/27 00:08:07;;;;;;;;;;;;;;;19.68;66.91;100004.59;1739498;81;20439;-66
2022/07/27 00:10:35;;;;;;;;;;;;;;;19.63;66.91;100003.40;1740645;81;21145;-66
2022/07/27 00:13:03;;;;;;;;;;;;;;;19.59;66.95;100003.27;1743179;81;20144;-66
2022/07/27 00:15:32;;;;;;;;;;;;;;;19.54;67.01;99997.25;1743116;81;20171;-65
2022/07/27 00:17:59;;;;;;;;;;;;;;;19.56;67.01;99999.08;1738564;81;20215;-65
2022/07/27 00:20:27;;;;;;;;;;;;;;;19.61;67.00;99997.50;1738829;81;20205;-66
2022/07/27 00:22:54;;;;;;;;;;;;;;;19.58;67.03;99996.27;1739178;81;21786;-66
2022/07/27 00:25:21;;;;;;;;;;;;;;;19.61;67.20;99992.09;1738777;81;20145;-66
2022/07/27 00:27:48;;;;;;;;;;;;;;;19.54;67.39;99991.83;1736939;81;20160;-67
2022/07/27 00:30:14;;;;;;;;;;;;;;;19.49;67.45;99996.11;1736805;81;20180;-67
2022/07/27 00:32:41;;;;;;;;;;;;;;;19.45;67.64;99995.41;1739733;81;20196;-66
2022/07/27 00:35:09;;;;;;;;;;;;;;;19.41;67.76;99997.73;1739013;81;21180;-65
2022/07/27 00:37:36;;;;;;;;;;;;;;;19.33;67.88;100003.45;1738531;81;20168;-65
2022/07/27 00:40:04;;;;;;;;;;;;;;;19.23;68.14;100002.48;1739082;81;20378;-66
2022/07/27 00:42:31;;;;;;;;;;;;;;;19.13;68.41;100002.30;1738380;81;20749;-66
2022/07/27 00:44:57;;;;;;;;;;;;;;;19.05;68.62;99998.28;1738907;81;20195;-66
2022/07/27 00:47:24;;;;;;;;;;;;;;;18.97;68.83;99998.02;1738819;81;21695;-65
2022/07/27 00:49:51;;;;;;;;;;;;;;;18.98;68.97;100000.94;1739079;81;20660;-65
2022/07/27 00:52:17;;;;;;;;;;;;;;;19.01;68.94;100006.27;1738743;81;20418;-66
2022/07/27 00:54:44;;;;;;;;;;;;;;;19.03;68.85;100004.60;1739020;81;20227;-66
2022/07/27 00:57:13;;;;;;;;;;;;;;;19.05;68.75;100005.05;1738987;81;20464;-66
2022/07/27 00:59:39;;;;;;;;;;;;;;;19.07;68.70;100008.23;1739002;81;21149;-65
2022/07/27 01:02:06;;;;;;;;;;;;;;;19.08;68.61;100001.12;1738321;81;20189;-65
2022/07/27 01:04:33;;;;;;;;;;;;;;;19.09;68.51;100000.59;1738912;81;20148;-66
2022/07/27 01:07:01;;;;;;;;;;;;;;;19.06;68.33;99992.56;1736118;81;20434;-66
2022/07/27 01:12:14;;;;;;;;;;;;;;;19.05;68.04;99989.62;1736475;81;21177;-65
2022/07/27 01:14:40;;;;;;;;;;;;;;;19.07;67.88;99993.34;1742953;81;20219;-66
2022/07/27 01:17:07;;;;;;;;;;;;;;;19.06;67.77;99999.89;1742823;81;20161;-66
2022/07/27 01:19:34;;;;;;;;;;;;;;;19.06;67.63;99998.54;1739452;81;20156;-67
2022/07/27 01:22:02;;;;;;;;;;;;;;;19.01;67.56;99999.50;1739172;81;20194;-66
2022/07/27 01:24:29;;;;;;;;;;;;;;;18.98;67.74;100000.16;1738561;81;21097;-65
2022/07/27 01:26:56;;;;;;;;;;;;;;;18.98;68.27;99991.47;1739977;81;20578;-66
2022/07/27 01:29:22;;;;;;;;;;;;;;;19.03;68.74;99989.72;1739833;81;20195;-66
2022/07/27 01:31:49;;;;;;;;;;;;;;;19.07;69.25;99995.49;1738743;81;20933;-66
2022/07/27 01:34:16;;;;;;;;;;;;;;;19.08;69.94;99988.16;1739115;81;20263;-66
2022/07/27 01:36:44;;;;;;;;;;;;;;;19.11;70.41;99991.56;1738344;81;20923;-66
2022/07/27 01:39:13;;;;;;;;;;;;;;;19.13;70.83;99984.71;1739286;81;20212;-66
2022/07/27 01:41:39;;;;;;;;;;;;;;;19.23;71.12;99986.81;1737451;81;20169;-65
2022/07/27 01:44:05;;;;;;;;;;;;;;;19.27;71.31;99991.23;1739251;81;20850;-65
2022/07/27 01:46:32;;;;;;;;;;;;;;;19.25;71.20;99989.42;1740263;81;20140;-66
2022/07/27 01:48:58;;;;;;;;;;;;;;;19.13;71.02;99986.06;1739935;81;21087;-66
2022/07/27 01:51:26;;;;;;;;;;;;;;;19.08;70.91;99990.87;1738977;81;20805;-66
2022/07/27 01:53:53;;;;;;;;;;;;;;;19.06;70.80;99990.42;1739210;81;20222;-66
2022/07/27 01:56:20;;;;;;;;;;;;;;;19.05;70.65;99988.81;1739065;81;20187;-66
2022/07/27 01:58:46;;;;;;;;;;;;;;;19.00;70.49;99991.16;1742291;81;20149;-67
2022/07/27 02:01:13;;;;;;;;;;;;;;;18.94;70.52;99989.19;1739320;81;21343;-67
2022/07/27 02:03:39;;;;;;;;;;;;;;;18.93;70.50;99986.26;1739239;81;20491;-67
2022/07/27 02:06:05;;;;;;;;;;;;;;;18.94;70.43;99991.89;1742501;81;20168;-67
2022/07/27 02:08:33;;;;;;;;;;;;;;;18.91;70.20;99991.20;1743267;81;20176;-67
2022/07/27 02:13:46;;;;;;;;;;;;;;;18.67;70.16;99989.06;1740303;81;21360;-65
2022/07/27 02:16:13;;;;;;;;;;;;;;;18.60;70.21;99988.77;1739864;81;20304;-66
2022/07/27 02:18:40;;;;;;;;;;;;;;;18.61;70.24;99994.41;1739664;81;20891;-65
2022/07/27 02:21:09;;;;;;;;;;;;;;;18.64;70.20;99999.73;1739458;81;20860;-66
2022/07/27 02:23:37;;;;;;;;;;;;;;;18.66;70.02;99996.16;1742526;81;20215;-67
2022/07/27 02:26:04;;;;;;;;;;;;;;;18.68;69.73;99999.31;1741838;81;21069;-66
2022/07/27 02:28:32;;;;;;;;;;;;;;;18.70;69.43;100000.58;1739047;81;20206;-65
2022/07/27 02:30:59;;;;;;;;;;;;;;;18.69;69.16;99997.66;1740511;81;20148;-66
2022/07/27 02:33:25;;;;;;;;;;;;;;;18.66;68.92;99998.30;1741967;82;20202;-65
2022/07/27 02:35:52;;;;;;;;;;;;;;;18.66;68.82;99996.16;1741661;81;20227;-66
2022/07/27 02:38:18;;;;;;;;;;;;;;;18.66;68.62;99993.45;1740090;81;21933;-66
2022/07/27 02:40:45;;;;;;;;;;;;;;;18.68;68.45;99991.20;1739758;81;20207;-66
2022/07/27 02:43:11;;;;;;;;;;;;;;;18.68;68.38;99994.69;1739533;81;20179;-67
2022/07/27 02:45:38;;;;;;;;;;;;;;;18.67;68.27;99989.06;1736282;81;20707;-65
2022/07/27 02:48:05;;;;;;;;;;;;;;;18.68;68.27;99991.20;1739607;81;20376;-66
2022/07/27 02:50:31;;;;;;;;;;;;;;;18.70;68.35;99997.09;1739785;81;21096;-66
2022/07/27 02:52:58;;;;;;;;;;;;;;;18.72;68.32;100002.45;1738634;81;20218;-66
2022/07/27 02:55:24;;;;;;;;;;;;;;;18.76;68.26;100003.16;1739141;81;20223;-65
2022/07/27 02:57:51;;;;;;;;;;;;;;;18.78;68.15;100003.59;1739419;81;20176;-66
2022/07/27 03:00:18;;;;;;;;;;;;;;;18.80;68.08;100006.22;1739626;81;20421;-66
2022/07/27 03:02:49;;;;;;;;;;;;;;;18.84;68.07;99999.03;1739998;81;21099;-66
2022/07/27 03:05:16;;;;;;;;;;;;;;;18.90;68.08;100008.56;1738609;81;20482;-66
2022/07/27 03:07:44;;;;;;;;;;;;;;;18.96;68.04;100007.83;1738862;81;20161;-65
2022/07/27 03:10:10;;;;;;;;;;;;;;;19.01;68.01;100004.91;1740171;81;20234;-66
2022/07/27 03:12:38;;;;;;;;;;;;;;;19.07;67.91;100008.23;1735947;81;20156;-66
2022/07/27 03:15:06;;;;;;;;;;;;;;;19.08;67.92;100007.89;1739217;81;21147;-66
2022/07/27 03:17:34;;;;;;;;;;;;;;;19.12;68.00;100014.27;1739530;81;20178;-66
2022/07/27 03:20:02;;;;;;;;;;;;;;;19.19;67.96;100017.24;1741019;81;20160;-67
2022/07/27 03:22:31;;;;;;;;;;;;;;;19.23;67.97;100014.67;1743079;81;20164;-67
2022/07/27 03:24:58;;;;;;;;;;;;;;;19.31;68.01;100017.88;1742558;81;20128;-66
2022/07/27 03:27:24;;;;;;;;;;;;;;;19.44;67.95;100016.83;1741876;81;21144;-67
2022/07/27 03:29:51;;;;;;;;;;;;;;;19.60;67.76;100023.81;1741561;81;20183;-67
2022/07/27 03:32:18;;;;;;;;;;;;;;;19.72;67.72;100021.77;1741808;81;20195;-67
2022/07/27 03:34:48;;;;;;;;;;;;;;;19.82;67.69;100021.93;1739387;81;20665;-66
2022/07/27 03:37:22;;;;;;;;;;;;;;;19.90;67.60;100021.84;1713138;83;20146;-65
2022/07/27 03:39:57;;;;;;;;;;;;;;;20.00;67.49;100026.63;1710757;83;21322;-66
2022/07/27 03:42:37;;;;;;;;;;;;;;;20.06;67.53;100023.94;1713629;81;20181;-67
2022/07/27 03:45:14;;;;;;;;;;;;;;;20.10;67.69;100023.50;1713513;82;20445;-66
2022/07/27 03:47:45;;;;;;;;;;;;;;;20.13;67.77;100025.54;1713395;82;20160;-66
2022/07/27 03:50:20;;;;;;;;;;;;;;;20.15;67.83;100027.37;1743042;81;20168;-67
2022/07/27 03:52:50;;;;;;;;;;;;;;;20.22;67.82;100023.55;1743094;81;21213;-66
2022/07/27 03:55:26;;;;;;;;;;;;;;;20.30;67.82;100031.35;1742768;81;20176;-66
2022/07/27 03:58:01;;;;;;;;;;;;;;;20.33;67.87;100031.47;1743116;82;20136;-67
2022/07/27 04:00:35;;;;;;;;;;;;;;;20.30;68.27;100031.35;1743041;82;20171;-66
2022/07/27 04:03:44;;;;;;;;;;;;;;;20.44;68.20;100027.79;1717333;82;20423;-66
2022/07/27 04:06:12;;;;;;;;;;;;;;;20.51;68.34;100029.98;1739383;81;21215;-66
2022/07/27 04:08:38;;;;;;;;;;;;;;;20.63;68.20;100025.91;1737600;81;20140;-66
2022/07/27 04:11:05;;;;;;;;;;;;;;;20.71;67.95;100016.89;1740461;82;20135;-66
2022/07/27 04:13:32;;;;;;;;;;;;;;;20.84;67.52;100021.19;1743360;81;20769;-67
2022/07/27 04:15:59;;;;;;;;;;;;;;;21.00;67.13;100017.81;1743268;81;20172;-67
2022/07/27 04:18:25;;;;;;;;;;;;;;;21.16;66.87;100010.56;1743019;81;21153;-66
2022/07/27 04:20:51;;;;;;;;;;;;;;;21.28;66.79;100015.95;1743155;81;20455;-66
2022/07/27 04:23:18;;;;;;;;;;;;;;;21.39;66.76;100016.87;1743012;81;20136;-66
2022/07/27 04:25:45;;;;;;;;;;;;;;;21.51;66.55;100017.64;1742770;81;20140;-67
2022/07/27 04:28:11;;;;;;;;;;;;;;;21.63;66.33;100007.31;1743119;81;20181;-67
2022/07/27 04:30:38;;;;;;;;;;;;;;;21.78;65.86;100007.14;1742840;81;21181;-65
2022/07/27 04:33:04;;;;;;;;;;;;;;;21.91;65.24;100008.67;1742937;81;20179;-66
2022/07/27 04:35:30;;;;;;;;;;;;;;;22.04;64.53;100009.41;1742784;81;20153;-66
2022/07/27 04:37:57;;;;;;;;;;;;;;;22.18;63.38;100011.20;1742275;81;20160;-66
2022/07/27 04:40:23;;;;;;;;;;;;;;;22.28;62.56;100015.34;1742495;81;20578;-67
2022/07/27 04:42:50;;;;;;;;;;;;;;;22.36;62.22;100012.23;1742873;81;21128;-67
2022/07/27 04:45:17;;;;;;;;;;;;;;;22.48;61.75;100018.39;1739509;81;20142;-67
2022/07/27 04:47:44;;;;;;;;;;;;;;;22.63;61.28;100016.80;1740142;82;20427;-66
2022/07/27 04:50:10;;;;;;;;;;;;;;;22.81;60.95;100023.27;1743140;82;20171;-66
2022/07/27 04:52:38;;;;;;;;;;;;;;;22.98;60.38;100027.59;1742673;82;20556;-66
2022/07/27 04:55:06;;;;;;;;;;;;;;;23.11;60.12;100026.34;1742953;81;21271;-66
2022/07/27 04:57:33;;;;;;;;;;;;;;;23.26;59.62;100021.98;1742461;81;20099;-67
2022/07/27 05:00:01;;;;;;;;;;;;;;;23.38;59.19;100024.02;1739093;81;20199;-66
2022/07/27 05:02:29;;;;;;;;;;;;;;;23.51;58.96;100029.35;1739593;81;20176;-65
2022/07/27 05:04:55;;;;;;;;;;;;;;;23.62;58.28;100028.41;1739570;81;20229;-65
2022/07/27 05:07:23;;;;;;;;;;;;;;;23.68;57.40;100027.59;1742635;81;20881;-66
2022/07/27 05:09:49;;;;;;;;;;;;;;;23.70;56.74;100029.41;1742951;81;20128;-66
2022/07/27 05:12:16;;;;;;;;;;;;;;;23.78;56.87;100027.02;1740568;81;20187;-66
2022/07/27 05:14:42;;;;;;;;;;;;;;;23.88;56.93;100031.90;1738916;81;20179;-66
2022/07/27 05:17:09;;;;;;;;;;;;;;;24.03;57.10;100025.38;1739187;81;20163;-66
2022/07/27 05:19:36;;;;;;;;;;;;;;;24.17;56.69;100027.00;1739177;81;21127;-66
2022/07/27 05:22:03;;;;;;;;;;;;;;;24.33;56.53;100027.69;1741608;82;20219;-66
2022/07/27 05:24:30;;;;;;;;;;;;;;;24.49;56.10;100027.61;1739106;81;20146;-66
2022/07/27 05:26:57;;;;;;;;;;;;;;;24.65;55.59;100030.80;1739136;81;20172;-65
2022/07/27 05:29:24;;;;;;;;;;;;;;;24.79;54.62;100031.81;1739436;81;20183;-66
2022/07/27 05:31:51;;;;;;;;;;;;;;;24.90;54.42;100040.75;1739519;81;21131;-66
2022/07/27 05:34:18;;;;;;;;;;;;;;;25.02;54.12;100038.61;1740627;81;20203;-66
2022/07/27 05:36:44;;;;;;;;;;;;;;;25.15;52.91;100041.96;1739973;81;20443;-67
2022/07/27 05:39:11;;;;;;;;;;;;;;;25.21;52.29;100045.95;1739759;81;20188;-66
2022/07/27 05:41:39;;;;;;;;;;;;;;;25.24;51.80;100047.95;1739973;81;20442;-67
2022/07/27 05:44:05;;;;;;;;;;;;;;;25.34;51.93;100051.22;1740117;81;21185;-66
2022/07/27 05:46:32;;;;;;;;;;;;;;;25.44;52.27;100049.20;1740184;81;20179;-66
2022/07/27 05:48:59;;;;;;;;;;;;;;;25.58;51.73;100048.61;1742147;81;20462;-67
2022/07/27 05:51:25;;;;;;;;;;;;;;;25.69;51.23;100050.89;1743469;81;20439;-68
2022/07/27 05:53:52;;;;;;;;;;;;;;;25.76;50.89;100049.60;1741972;82;20199;-67
2022/07/27 05:56:21;;;;;;;;;;;;;;;25.86;50.76;100050.34;1741330;82;20188;-68
2022/07/27 05:58:48;;;;;;;;;;;;;;;25.96;50.39;100050.27;1739886;81;20176;-68
2022/07/27 06:01:15;;;;;;;;;;;;;;;25.99;49.50;100052.84;1742990;81;20161;-75
2022/07/27 06:03:41;;;;;;;;;;;;;;;25.96;49.67;100053.00;1739066;81;20140;-67
2022/07/27 06:08:53;;;;;;;;;;;;;;;26.07;49.47;100055.30;1739958;81;21014;-67
2022/07/27 06:11:20;;;;;;;;;;;;;;;26.16;49.63;100049.53;1739915;81;20416;-67
2022/07/27 06:13:49;;;;;;;;;;;;;;;26.33;49.65;100048.14;1737698;81;20462;-67
2022/07/27 06:16:17;;;;;;;;;;;;;;;26.50;49.46;100047.55;1740483;81;20427;-67
2022/07/27 06:18:44;;;;;;;;;;;;;;;26.65;49.04;100048.45;1739705;81;20206;-66
2022/07/27 06:21:10;;;;;;;;;;;;;;;26.79;48.53;100048.59;1739447;81;21154;-66
2022/07/27 06:23:36;;;;;;;;;;;;;;;26.95;47.96;100048.32;1738839;81;20468;-66
2022/07/27 06:26:03;;;;;;;;;;;;;;;27.05;47.06;100048.20;1738544;81;20199;-66
2022/07/27 06:28:30;;;;;;;;;;;;;;;27.16;47.49;100047.70;1735788;81;20175;-66
2022/07/27 06:30:57;;;;;;;;;;;;;;;27.30;47.53;100045.04;1741082;81;20144;-66
2022/07/27 06:33:27;;;;;;;;;;;;;;;27.44;46.18;100044.92;1743286;81;21141;-66
2022/07/27 06:35:56;;;;;;;;;;;;;;;27.48;45.05;100049.86;1742474;81;20196;-66
2022/07/27 06:38:25;;;;;;;;;;;;;;;27.56;44.56;100054.20;1742417;81;20183;-66
2022/07/27 06:40:54;;;;;;;;;;;;;;;27.64;45.06;100049.52;1743361;82;20230;-67
2022/07/27 06:43:26;;;;;;;;;;;;;;;27.76;44.65;100051.94;1742074;81;20410;-67
2022/07/27 06:45:53;;;;;;;;;;;;;;;27.86;44.49;100046.32;1739959;81;21265;-66
2022/07/27 06:48:20;;;;;;;;;;;;;;;27.94;43.09;100047.94;1739072;81;20125;-67
2022/07/27 06:50:49;;;;;;;;;;;;;;;28.03;42.02;100053.82;1739830;81;20271;-67
2022/07/27 06:53:15;;;;;;;;;;;;;;;28.12;42.08;100056.20;1738918;81;20157;-66
2022/07/27 06:55:42;;;;;;;;;;;;;;;27.97;42.66;100052.62;1736607;81;20382;-66
2022/07/27 06:58:11;;;;;;;;;;;;;;;28.06;42.99;100053.05;1739746;81;20465;-65
2022/07/27 07:00:39;;;;;;;;;;;;;;;28.41;40.91;100053.75;1740324;81;20180;-66
2022/07/27 07:03:06;;;;;;;;;;;;;;;28.01;41.97;100054.81;1742731;81;20148;-66
2022/07/27 07:05:36;;;;;;;;;;;;;;;28.52;41.35;100056.50;1743063;81;20132;-72
2022/07/27 07:08:10;;;;;;;;;;;;;;;28.67;40.32;100055.34;1737516;81;20168;-76
2022/07/27 07:10:33;;;;;;;;;;;;;;;28.79;39.23;100056.91;1738885;81;21148;-75
2022/07/27 07:13:02;;;;;;;;;;;;;;;28.89;39.05;100052.58;1738424;81;20250;-76
2022/07/27 07:15:29;;;;;;;;;;;;;;;29.02;38.85;100048.28;1739391;81;20171;-66
2022/07/27 07:17:56;;;;;;;;;;;;;;;29.11;38.42;100050.63;1739517;81;20635;-65
2022/07/27 07:20:23;;;;;;;;;;;;;;;29.18;37.63;100042.36;1739019;81;20231;-66
2022/07/27 07:22:50;;;;;;;;;;;;;;;29.29;38.01;100046.49;1739922;80;21403;-65
2022/07/27 07:25:16;;;;;;;;;;;;;;;29.40;37.46;100045.86;1738697;81;20185;-66
2022/07/27 07:27:43;;;;;;;;;;;;;;;29.56;36.74;100039.33;1739390;81;20136;-66
2022/07/27 07:30:11;;;;;;;;;;;;;;;29.75;37.36;100049.71;1741063;81;20152;-67
2022/07/27 07:32:38;;;;;;;;;;;;;;;29.85;36.39;100041.40;1738493;81;20213;-67
2022/07/27 07:35:06;;;;;;;;;;;;;;;29.95;36.55;100042.53;1738787;81;21799;-67
2022/07/27 07:37:33;;;;;;;;;;;;;;;30.09;36.33;100041.06;1739033;81;20585;-67
2022/07/27 07:40:00;;;;;;;;;;;;;;;30.27;36.20;100041.57;1738511;81;20150;-67
2022/07/27 07:42:27;;;;;;;;;;;;;;;30.38;35.64;100038.16;1740170;81;20199;-66
2022/07/27 07:44:53;;;;;;;;;;;;;;;30.44;35.49;100039.31;1740038;81;20223;-65
2022/07/27 07:47:19;;;;;;;;;;;;;;;30.52;35.34;100035.89;1739438;81;21115;-66
2022/07/27 07:49:46;;;;;;;;;;;;;;;30.63;34.80;100040.72;1739015;81;20185;-67
2022/07/27 07:52:12;;;;;;;;;;;;;;;30.73;34.63;100043.98;1739188;81;20156;-67
2022/07/27 07:54:39;;;;;;;;;;;;;;;30.87;34.26;100035.45;1739660;81;20191;-66
2022/07/27 07:57:05;;;;;;;;;;;;;;;30.94;34.22;100037.53;1737561;81;20666;-66
2022/07/27 07:59:32;;;;;;;;;;;;;;;31.05;35.04;100036.05;1739233;81;21087;-66
2022/07/27 08:02:02;;;;;;;;;;;;;;;31.18;34.11;100037.70;1740194;81;20140;-65
2022/07/27 08:04:27;;;;;;;;;;;;;;;31.29;33.95;100044.67;1739024;81;20187;-67
2022/07/27 08:06:53;;;;;;;;;;;;;;;31.37;33.11;100041.86;1713413;81;21021;-64
2022/07/27 08:09:25;;;;;;;;;;;;;;;31.25;33.54;100045.89;1736545;81;20218;-64
2022/07/27 08:11:48;;;;;;;;;;;;;;;31.21;33.37;100046.53;1739704;81;21027;-65
2022/07/27 08:14:16;;;;;;;;;;;;;;;31.20;33.73;100046.36;1737892;81;20132;-66
2022/07/27 08:16:44;;;;;;;;;;;;;;;31.20;34.18;100046.36;1737929;81;20181;-65
2022/07/27 08:19:12;;;;;;;;;;;;;;;31.20;33.79;100042.22;1739552;81;20148;-66
2022/07/27 08:21:39;;;;;;;;;;;;;;;31.19;34.25;100042.78;1739584;81;20430;-66
2022/07/27 08:24:06;;;;;;;;;;;;;;;31.22;34.10;100042.57;1740612;81;21338;-66
2022/07/27 08:26:32;;;;;;;;;;;;;;;31.21;33.50;100039.03;1739791;81;20141;-69
2022/07/27 08:29:00;;;;;;;;;;;;;;;31.26;33.25;100041.92;1736636;81;20431;-66
2022/07/27 08:31:26;;;;;;;;;;;;;;;31.27;32.97;100043.52;1742661;81;20142;-67
2022/07/27 08:33:53;;;;;;;;;;;;;;;31.30;33.79;100040.72;1743279;81;20176;-67
2022/07/27 08:36:19;;;;;;;;;;;;;;;31.29;33.81;100043.87;1742618;82;21243;-67
2022/07/27 08:38:46;;;;;;;;;;;;;;;31.32;33.30;100041.67;1743118;82;20163;-66
2022/07/27 08:41:12;;;;;;;;;;;;;;;31.36;33.02;100031.43;1741640;81;20191;-66
2022/07/27 08:43:41;;;;;;;;;;;;;;;31.43;33.76;100036.86;1739676;81;20151;-66
2022/07/27 08:46:07;;;;;;;;;;;;;;;31.42;31.89;100036.66;1738097;81;20274;-66
2022/07/27 08:48:34;;;;;;;;;;;;;;;31.38;32.36;100041.44;1738489;81;21135;-66
2022/07/27 08:51:01;;;;;;;;;;;;;;;31.39;31.78;100033.94;1711308;82;20205;-66
2022/07/27 08:53:30;;;;;;;;;;;;;;;31.42;32.00;100040.02;1713525;82;20143;-66
2022/07/27 08:55:57;;;;;;;;;;;;;;;31.36;32.01;100041.09;1724359;81;20148;-66
2022/07/27 08:58:23;;;;;;;;;;;;;;;31.43;32.93;100042.98;1743427;82;20143;-66
2022/07/27 09:00:50;;;;;;;;;;;;;;;31.64;32.37;100039.17;1740333;81;21101;-67
2022/07/27 09:03:20;;;;;;;;;;;;;;;31.73;31.61;100033.94;1741986;81;20164;-66
2022/07/27 09:05:50;;;;;;;;;;;;;;;31.82;30.74;100031.45;1741262;81;20234;-66
2022/07/27 09:08:25;;;;;;;;;;;;;;;31.86;30.87;100036.94;1737686;81;20450;-65
2022/07/27 09:10:53;;;;;;;;;;;;;;;31.95;30.34;100036.64;1741797;81;20195;-66
2022/07/27 09:13:32;;;;;;;;;;;;;;;32.08;31.00;100035.45;1743178;81;21172;-66
2022/07/27 09:16:06;;;;;;;;;;;;;;;32.18;31.58;100038.68;1740253;81;20507;-65
2022/07/27 09:18:34;;;;;;;;;;;;;;;32.24;30.99;100033.45;1739362;81;20167;-65
2022/07/27 09:21:18;;;;;;;;;;;;;;;32.36;30.79;100039.00;1739116;81;20200;-66
2022/07/27 09:23:48;;;;;;;;;;;;;;;32.46;30.50;100033.94;1739656;81;20498;-66
2022/07/27 09:26:23;;;;;;;;;;;;;;;32.41;29.83;100034.37;1735903;81;21271;-66
2022/07/27 09:28:57;;;;;;;;;;;;;;;32.31;29.73;100030.56;1742884;81;20136;-66
2022/07/27 09:31:24;;;;;;;;;;;;;;;32.39;29.41;100025.12;1742759;81;20172;-67
2022/07/27 09:33:53;;;;;;;;;;;;;;;32.49;29.45;100030.34;1740611;81;20148;-66
2022/07/27 09:36:22;;;;;;;;;;;;;;;32.53;28.35;100026.13;1739203;81;20175;-67
2022/07/27 09:39:05;;;;;;;;;;;;;;;32.51;29.69;100029.33;1739871;81;21172;-66
2022/07/27 09:41:48;;;;;;;;;;;;;;;32.57;28.52;100029.61;1737219;81;20180;-66
2022/07/27 09:44:15;;;;;;;;;;;;;;;32.72;29.02;100030.17;1739788;81;20148;-66
2022/07/27 09:46:44;;;;;;;;;;;;;;;32.91;29.39;100031.59;1739265;81;20148;-67
2022/07/27 09:49:29;;;;;;;;;;;;;;;33.15;28.46;100029.59;1738893;81;20261;-66
2022/07/27 09:51:57;;;;;;;;;;;;;;;33.35;27.70;100035.14;1736323;81;21276;-67
2022/07/27 09:54:24;;;;;;;;;;;;;;;33.55;27.89;100033.78;1739875;81;20147;-66
2022/07/27 09:56:59;;;;;;;;;;;;;;;33.60;26.32;100035.30;1737944;81;20213;-67
2022/07/27 09:59:25;;;;;;;;;;;;;;;33.53;26.51;100032.64;1739826;81;20614;-67
2022/07/27 10:01:53;;;;;;;;;;;;;;;33.48;26.20;100040.05;1738806;81;20224;-67
2022/07/27 10:04:20;;;;;;;;;;;;;;;33.42;26.31;100032.06;1739909;81;21148;-67
2022/07/27 10:06:48;;;;;;;;;;;;;;;33.35;26.32;100033.76;1740340;81;20218;-67
2022/07/27 10:09:15;;;;;;;;;;;;;;;33.27;26.70;100031.55;1739490;81;20180;-67
2022/07/27 10:11:41;;;;;;;;;;;;;;;33.22;27.36;100031.45;1710409;81;20218;-67
2022/07/27 10:14:09;;;;;;;;;;;;;;;33.24;27.10;100030.44;1738897;81;20185;-65
2022/07/27 10:16:35;;;;;;;;;;;;;;;33.33;27.38;100038.16;1740840;81;21081;-66
2022/07/27 10:19:31;;;;;;;;;;;;;;;33.43;27.67;100037.16;1739936;81;20207;-66
2022/07/27 10:21:58;;;;;;;;;;;;;;;33.35;27.88;100035.75;1696162;83;20396;-66
2022/07/27 10:24:32;;;;;;;;;;;;;;;33.22;26.75;100035.60;1707562;83;20574;-67
2022/07/27 10:26:59;;;;;;;;;;;;;;;33.13;27.12;100029.84;1719539;81;20136;-67
2022/07/27 10:29:26;;;;;;;;;;;;;;;33.16;27.16;100030.37;1742145;81;21823;-65
2022/07/27 10:31:58;;;;;;;;;;;;;;;33.05;28.33;100032.57;1743157;82;20203;-67
2022/07/27 10:34:43;;;;;;;;;;;;;;;33.04;27.47;100035.14;1743010;82;20208;-66
2022/07/27 10:37:26;;;;;;;;;;;;;;;32.87;28.06;100035.61;1742312;81;20136;-68
2022/07/27 10:42:43;;;;;;;;;;;;;;;33.08;27.71;100028.96;1739577;81;21131;-67
2022/07/27 10:45:12;;;;;;;;;;;;;;;33.35;28.28;100031.60;1739908;81;20132;-66
2022/07/27 10:47:46;;;;;;;;;;;;;;;33.59;27.75;100030.94;1743332;81;20172;-66
2022/07/27 10:50:19;;;;;;;;;;;;;;;33.70;27.47;100031.52;1743397;82;20153;-67
2022/07/27 10:52:57;;;;;;;;;;;;;;;33.76;26.70;100027.62;1739711;81;20148;-65
2022/07/27 10:55:35;;;;;;;;;;;;;;;33.77;26.45;100023.66;1739197;81;21141;-66
2022/07/27 10:58:11;;;;;;;;;;;;;;;33.77;26.68;100029.97;1740022;81;20164;-66
2022/07/27 11:00:53;;;;;;;;;;;;;;;33.79;26.36;100028.92;1735559;81;20140;-66
2022/07/27 11:03:26;;;;;;;;;;;;;;;33.77;26.41;100027.81;1736688;81;20623;-66
2022/07/27 11:05:57;;;;;;;;;;;;;;;33.64;26.85;100033.83;1738427;81;20187;-66
2022/07/27 11:08:33;;;;;;;;;;;;;;;33.60;26.79;100031.91;1741836;81;21135;-66
2022/07/27 11:10:59;;;;;;;;;;;;;;;33.66;27.23;100029.41;1743161;82;20136;-66
2022/07/27 11:13:28;;;;;;;;;;;;;;;33.78;27.03;100027.37;1741109;81;20225;-65
2022/07/27 11:15:58;;;;;;;;;;;;;;;33.88;27.10;100028.95;1739612;81;20403;-66
2022/07/27 11:18:32;;;;;;;;;;;;;;;33.85;26.76;100025.83;1739389;81;20199;-66
2022/07/27 11:21:18;;;;;;;;;;;;;;;33.57;27.14;100034.16;1738540;81;22016;-66
2022/07/27 11:23:47;;;;;;;;;;;;;;;33.33;27.64;100028.47;1739742;81;20211;-65
2022/07/27 11:26:14;;;;;;;;;;;;;;;33.21;27.60;100027.13;1722588;81;20139;-68
2022/07/27 11:28:42;;;;;;;;;;;;;;;33.16;27.31;100026.22;1676276;84;20435;-66
2022/07/27 11:31:10;;;;;;;;;;;;;;;33.23;27.27;100025.30;1725077;81;20136;-66
2022/07/27 11:33:56;;;;;;;;;;;;;;;33.27;26.94;100025.44;1724578;81;22062;-66
2022/07/27 11:36:36;;;;;;;;;;;;;;;33.20;27.06;100027.54;1722256;82;20156;-66
2022/07/27 11:39:02;;;;;;;;;;;;;;;33.03;27.20;100025.28;1723414;81;20140;-66
2022/07/27 11:41:31;;;;;;;;;;;;;;;32.98;28.27;100026.56;1676351;84;20148;-67
2022/07/27 11:47:32;;;;;;;;;;;;;;;33.14;28.12;100025.28;1692046;84;21626;-66
2022/07/27 11:50:14;;;;;;;;;;;;;;;33.29;27.38;100028.54;1703444;84;20146;-66
2022/07/27 11:52:46;;;;;;;;;;;;;;;33.32;27.87;100030.45;1675567;84;20475;-66
2022/07/27 11:55:31;;;;;;;;;;;;;;;33.27;28.26;100035.12;1706137;84;20146;-66
2022/07/27 11:58:11;;;;;;;;;;;;;;;33.29;29.08;100030.53;1706883;84;20186;-66
2022/07/27 12:00:46;;;;;;;;;;;;;;;33.39;29.04;100028.92;1710473;83;20663;-67
2022/07/27 12:05:56;;;;;;;;;;;;;;;33.48;27.88;100020.06;1708817;82;20409;-67
2022/07/27 12:08:37;;;;;;;;;;;;;;;33.48;27.60;100023.44;1722302;81;20199;-66
2022/07/27 12:10:58;;;;;;;;;;;;;;;33.34;27.62;100021.75;1668792;84;20482;-66
2022/07/27 12:13:39;;;;;;;;;;;;;;;33.24;27.42;100024.13;1647445;84;21028;-66
2022/07/27 12:16:15;;;;;;;;;;;;;;;32.98;28.30;100028.56;1671889;84;20443;-66
2022/07/27 12:18:49;;;;;;;;;;;;;;;32.75;28.69;100022.41;1678036;84;20154;-66
2022/07/27 12:21:24;;;;;;;;;;;;;;;32.61;28.05;100030.33;1705442;84;20130;-67
2022/07/27 12:23:58;;;;;;;;;;;;;;;32.50;28.34;100029.12;1664943;84;20193;-67
2022/07/27 12:26:27;;;;;;;;;;;;;;;32.37;27.35;100028.90;1704456;84;20178;-66
2022/07/27 12:29:21;;;;;;;;;;;;;;;32.17;28.80;100034.94;1703600;84;20159;-66
2022/07/27 12:31:53;;;;;;;;;;;;;;;31.97;31.61;100036.98;1700510;84;20185;-66
2022/07/27 12:34:22;;;;;;;;;;;;;;;31.70;32.34;100036.92;1709892;83;20134;-66
2022/07/27 12:36:58;;;;;;;;;;;;;;;31.57;31.55;100034.52;1709489;84;20265;-67
2022/07/27 12:39:28;;;;;;;;;;;;;;;31.47;29.93;100040.95;1709025;84;20177;-66
2022/07/27 12:42:11;;;;;;;;;;;;;;;31.32;29.77;100030.63;1702713;83;20441;-67
2022/07/27 12:44:44;;;;;;;;;;;;;;;31.21;30.27;100034.89;1681660;85;20143;-66
2022/07/27 12:50:20;;;;;;;;;;;;;;;31.11;30.33;100037.77;1700378;84;20170;-67
2022/07/27 12:52:54;;;;;;;;;;;;;;;30.94;30.84;100040.30;1678908;85;20180;-65
2022/07/27 12:55:27;;;;;;;;;;;;;;;30.84;31.12;100044.72;1708994;84;20186;-65
2022/07/27 12:58:02;;;;;;;;;;;;;;;30.80;31.52;100043.16;1703278;84;20457;-65
2022/07/27 13:00:34;;;;;;;;;;;;;;;30.74;32.29;100042.03;1707008;84;20142;-66
2022/07/27 13:03:02;;;;;;;;;;;;;;;30.66;33.09;100041.88;1710237;84;20178;-66
2022/07/27 13:05:35;;;;;;;;;;;;;;;30.58;32.78;100037.81;1679185;84;20201;-67
2022/07/27 13:08:08;;;;;;;;;;;;;;;30.53;32.96;100042.37;1710072;84;20154;-66
2022/07/27 13:10:46;;;;;;;;;;;;;;;;;;;;;